Time;durP1;ratioP1;P1;durP2;ratioP2;P2;SDS_P1;SDS_P2;PMS_P1;PMS_P2;Temp;Humidity;BMP_temperature;BMP_pressure;BME280_temperature;BME280_humidity;BME280_pressure;Samples;Min_cycle;Max_cycle;Signal;HPM_P1;HPM_P2
2022/01/25 00:08:19;;;;;;;;;;;;;;;;;;4206225;28;1301;-64
2022/01/25 00:09:33;;;;;;;;;;;;;;;;;;4206151;28;1138;-64
2022/01/25 00:25:10;;;;;;;;;;;;;;;;;;4211916;28;868;-63
2022/01/25 00:27:42;;;;;;;;;;;;;;;;;;4226355;28;1267;-64
2022/01/25 00:30:23;;;;;;;;;;;;;;;;;;4239664;28;975;-63
2022/01/25 00:32:44;;;;;;;;;;;;;;;;;;4239695;28;1086;-63
2022/01/25 00:35:04;;;;;;;;;;;;;;;;;;4239676;28;907;-64
2022/01/25 00:37:25;;;;;;;;;;;;;;;;;;4239369;27;1153;-63
2022/01/25 00:39:45;;;;;;;;;;;;;;;;;;4239507;28;1906;-63
2022/01/25 00:42:06;;;;;;;;;;;;;;;;;;4239373;28;1070;-64
2022/01/25 00:44:30;;;;;;;;;;;;;;;;;;4239491;28;944;-64
2022/01/25 00:46:51;;;;;;;;;;;;;;;;;;4239248;27;1209;-63
2022/01/25 00:49:15;;;;;;;;;;;;;;;;;;4239176;27;1058;-63
2022/01/25 00:54:16;;;;;;;;;;;;;;;;;;4237887;27;1037;-63
2022/01/25 00:56:37;;;;;;;;;;;;;;;;;;4239186;28;1050;-65
2022/01/25 00:58:57;;;;;;;;;;;;;;;;;;4239160;28;1300;-64
2022/01/25 01:01:17;;;;;;;;;;;;;;;;;;4239094;27;1983;-64
2022/01/25 01:03:37;;;;;;;;;;;;;;;;;;4238110;28;880;-64
2022/01/25 01:05:58;;;;;;;;;;;;;;;;;;4239064;27;997;-64
2022/01/25 01:08:18;;;;;;;;;;;;;;;;;;4238220;28;1066;-63
2022/01/25 01:10:39;;;;;;;;;;;;;;;;;;4239120;28;853;-64
2022/01/25 01:15:44;;;;;;;;;;;;;;;;;;4239158;28;931;-63
2022/01/25 01:29:06;;;;;;;;;;;;;;;;;;4221912;28;1271;-64
2022/01/25 01:31:35;;;;;;;;;;;;;;;;;;4221900;28;852;-64
2022/01/25 01:42:17;;;;;;;;;;;;;;;;;;4221754;28;1004;-64
2022/01/25 01:44:52;;;;;;;;;;;;;;;;;;4221779;28;920;-65
2022/01/25 01:47:22;;;;;;;;;;;;;;;;;;4221281;28;1276;-64
2022/01/25 01:49:44;;;;;;;;;;;;;;;;;;4221794;28;939;-64
2022/01/25 01:52:04;;;;;;;;;;;;;;;;;;4221595;28;1134;-64
2022/01/25 01:54:25;;;;;;;;;;;;;;;;;;4221401;28;1013;-64
2022/01/25 01:56:45;;;;;;;;;;;;;;;;;;4221797;28;877;-64
2022/01/25 01:59:05;;;;;;;;;;;;;;;;;;4220649;28;1289;-64
2022/01/25 02:01:42;;;;;;;;;;;;;;;;;;4221219;28;1992;-63
2022/01/25 02:04:02;;;;;;;;;;;;;;;;;;4221424;28;933;-64
2022/01/25 02:06:22;;;;;;;;;;;;;;;;;;4220960;28;1032;-64
2022/01/25 02:08:42;;;;;;;;;;;;;;;;;;4221116;28;1157;-64
2022/01/25 02:11:03;;;;;;;;;;;;;;;;;;4221008;28;981;-64
2022/01/25 02:13:23;;;;;;;;;;;;;;;;;;4220886;28;1173;-63
2022/01/25 02:15:46;;;;;;;;;;;;;;;;;;4221162;28;1036;-64
2022/01/25 02:23:23;;;;;;;;;;;;;;;;;;4224144;28;997;-64
2022/01/25 02:25:43;;;;;;;;;;;;;;;;;;4224323;28;1027;-64
2022/01/25 02:28:03;;;;;;;;;;;;;;;;;;4239165;28;1154;-64
2022/01/25 02:30:24;;;;;;;;;;;;;;;;;;4241010;27;997;-63
2022/01/25 02:32:44;;;;;;;;;;;;;;;;;;4241091;27;1078;-64
2022/01/25 02:35:04;;;;;;;;;;;;;;;;;;4240667;27;1131;-64
2022/01/25 02:37:24;;;;;;;;;;;;;;;;;;4240967;27;1209;-64
2022/01/25 02:39:45;;;;;;;;;;;;;;;;;;4241167;28;838;-64
2022/01/25 02:42:06;;;;;;;;;;;;;;;;;;4240890;27;1909;-64
2022/01/25 02:44:28;;;;;;;;;;;;;;;;;;4240818;27;1231;-63
2022/01/25 02:49:26;;;;;;;;;;;;;;;;;;4239547;28;1114;-63
2022/01/25 02:51:47;;;;;;;;;;;;;;;;;;4240525;27;973;-64
2022/01/25 02:54:08;;;;;;;;;;;;;;;;;;4240801;27;1211;-63
2022/01/25 02:56:29;;;;;;;;;;;;;;;;;;4240866;28;953;-64
2022/01/25 02:58:49;;;;;;;;;;;;;;;;;;4240485;28;1307;-64
2022/01/25 03:01:09;;;;;;;;;;;;;;;;;;4240698;27;1906;-63
2022/01/25 03:03:30;;;;;;;;;;;;;;;;;;4239507;28;945;-64
2022/01/25 03:05:50;;;;;;;;;;;;;;;;;;4240543;28;1051;-64
2022/01/25 03:08:13;;;;;;;;;;;;;;;;;;4240843;28;1006;-63
2022/01/25 03:10:33;;;;;;;;;;;;;;;;;;4240668;27;1090;-64
2022/01/25 03:12:56;;;;;;;;;;;;;;;;;;4240674;28;1041;-64
2022/01/25 03:15:30;;;;;;;;;;;;;;;;;;4240460;27;998;-64
2022/01/25 03:17:54;;;;;;;;;;;;;;;;;;4240805;27;1001;-64
2022/01/25 03:20:20;;;;;;;;;;;;;;;;;;4240528;28;1024;-64
2022/01/25 03:22:57;;;;;;;;;;;;;;;;;;4240516;28;1014;-64
2022/01/25 03:25:17;;;;;;;;;;;;;;;;;;4240263;27;1019;-64
2022/01/25 03:27:37;;;;;;;;;;;;;;;;;;4239886;28;1283;-64
2022/01/25 03:29:58;;;;;;;;;;;;;;;;;;4240621;28;949;-64
2022/01/25 03:32:18;;;;;;;;;;;;;;;;;;4240470;28;875;-63
2022/01/25 03:34:38;;;;;;;;;;;;;;;;;;4240417;28;1010;-64
2022/01/25 03:36:58;;;;;;;;;;;;;;;;;;4240078;27;985;-64
2022/01/25 03:39:19;;;;;;;;;;;;;;;;;;4240443;28;836;-63
2022/01/25 03:41:39;;;;;;;;;;;;;;;;;;4240178;28;1980;-64
2022/01/25 03:43:59;;;;;;;;;;;;;;;;;;4240154;28;826;-64
2022/01/25 03:46:25;;;;;;;;;;;;;;;;;;4235706;28;1358;-63
2022/01/25 03:51:23;;;;;;;;;;;;;;;;;;4222893;28;1197;-64
2022/01/25 03:53:43;;;;;;;;;;;;;;;;;;4223183;28;1039;-64
2022/01/25 03:56:03;;;;;;;;;;;;;;;;;;4223201;28;929;-63
2022/01/25 03:58:23;;;;;;;;;;;;;;;;;;4222885;28;1299;-64
2022/01/25 04:00:44;;;;;;;;;;;;;;;;;;4222899;28;1099;-64
2022/01/25 04:03:08;;;;;;;;;;;;;;;;;;4223224;28;959;-65
2022/01/25 04:05:36;;;;;;;;;;;;;;;;;;4222519;28;1213;-63
2022/01/25 04:07:56;;;;;;;;;;;;;;;;;;4222855;28;980;-64
2022/01/25 04:10:18;;;;;;;;;;;;;;;;;;4222790;28;972;-64
2022/01/25 04:12:38;;;;;;;;;;;;;;;;;;4223065;28;1520;-63
2022/01/25 04:15:00;;;;;;;;;;;;;;;;;;4222722;28;1057;-64
2022/01/25 04:17:21;;;;;;;;;;;;;;;;;;4223010;28;992;-64
2022/01/25 04:19:45;;;;;;;;;;;;;;;;;;4222874;28;840;-63
2022/01/25 04:25:07;;;;;;;;;;;;;;;;;;4222694;28;1101;-64
2022/01/25 04:27:28;;;;;;;;;;;;;;;;;;4222303;28;1064;-64
2022/01/25 04:29:48;;;;;;;;;;;;;;;;;;4222511;28;982;-64
2022/01/25 04:32:11;;;;;;;;;;;;;;;;;;4222592;28;1190;-65
2022/01/25 04:34:42;;;;;;;;;;;;;;;;;;4222578;28;828;-64
2022/01/25 04:50:21;;;;;;;;;;;;;;;;;;4222313;28;988;-64
2022/01/25 04:52:51;;;;;;;;;;;;;;;;;;4222442;28;944;-64
2022/01/25 04:55:19;;;;;;;;;;;;;;;;;;4222358;28;932;-63
2022/01/25 04:57:46;;;;;;;;;;;;;;;;;;4222234;28;1052;-63
2022/01/25 05:00:13;;;;;;;;;;;;;;;;;;4222626;28;1055;-64
2022/01/25 05:02:45;;;;;;;;;;;;;;;;;;4222117;28;2031;-64
2022/01/25 05:05:11;;;;;;;;;;;;;;;;;;4222218;28;957;-63
2022/01/25 05:07:37;;;;;;;;;;;;;;;;;;4222043;28;1164;-64
2022/01/25 05:09:59;;;;;;;;;;;;;;;;;;4221554;28;1962;-63
2022/01/25 05:12:29;;;;;;;;;;;;;;;;;;4220573;28;1382;-64
2022/01/25 05:14:58;;;;;;;;;;;;;;;;;;4219668;28;1571;-64
2022/01/25 05:17:29;;;;;;;;;;;;;;;;;;4221756;28;1770;-64
2022/01/25 05:22:30;;;;;;;;;;;;;;;;;;4221768;28;1909;-64
2022/01/25 05:24:50;;;;;;;;;;;;;;;;;;4222072;28;1204;-64
2022/01/25 05:27:11;;;;;;;;;;;;;;;;;;4220670;28;1825;-64
2022/01/25 05:29:31;;;;;;;;;;;;;;;;;;4221941;28;928;-66
2022/01/25 05:31:51;;;;;;;;;;;;;;;;;;4221695;28;1026;-64
2022/01/25 05:34:12;;;;;;;;;;;;;;;;;;4222027;28;1259;-64
2022/01/25 05:36:32;;;;;;;;;;;;;;;;;;4221828;28;1031;-65
2022/01/25 05:38:55;;;;;;;;;;;;;;;;;;4221796;28;1067;-64
2022/01/25 05:41:15;;;;;;;;;;;;;;;;;;4221960;28;964;-64
2022/01/25 05:44:05;;;;;;;;;;;;;;;;;;4221931;28;1178;-64
2022/01/25 05:46:34;;;;;;;;;;;;;;;;;;4232364;28;1101;-64
2022/01/25 05:48:54;;;;;;;;;;;;;;;;;;4238576;27;1103;-66
2022/01/25 05:51:15;;;;;;;;;;;;;;;;;;4238619;28;1128;-64
2022/01/25 05:53:35;;;;;;;;;;;;;;;;;;4238509;28;1162;-64
2022/01/25 05:55:56;;;;;;;;;;;;;;;;;;4238268;27;945;-64
2022/01/25 05:58:16;;;;;;;;;;;;;;;;;;4238425;27;1323;-64
2022/01/25 06:00:36;;;;;;;;;;;;;;;;;;4238503;28;938;-65
2022/01/25 06:02:56;;;;;;;;;;;;;;;;;;4238569;28;1909;-64
2022/01/25 06:05:17;;;;;;;;;;;;;;;;;;4236383;27;1164;-66
2022/01/25 06:07:37;;;;;;;;;;;;;;;;;;4221749;28;1014;-64
2022/01/25 06:09:57;;;;;;;;;;;;;;;;;;4220012;28;1013;-64
2022/01/25 06:12:18;;;;;;;;;;;;;;;;;;4221836;28;953;-65
2022/01/25 06:14:39;;;;;;;;;;;;;;;;;;4221528;28;980;-64
2022/01/25 06:16:59;;;;;;;;;;;;;;;;;;4221402;28;979;-64
2022/01/25 06:19:19;;;;;;;;;;;;;;;;;;4221308;28;1060;-64
2022/01/25 06:21:39;;;;;;;;;;;;;;;;;;4221403;28;1976;-64
2022/01/25 06:24:00;;;;;;;;;;;;;;;;;;4221246;28;1011;-64
2022/01/25 06:26:20;;;;;;;;;;;;;;;;;;4232275;28;1197;-64
2022/01/25 06:28:41;;;;;;;;;;;;;;;;;;4238679;28;994;-64
2022/01/25 06:31:01;;;;;;;;;;;;;;;;;;4238810;28;808;-63
2022/01/25 06:33:21;;;;;;;;;;;;;;;;;;4238280;28;927;-64
2022/01/25 06:35:44;;;;;;;;;;;;;;;;;;4238255;28;971;-64
2022/01/25 06:38:04;;;;;;;;;;;;;;;;;;4238207;28;997;-63
2022/01/25 06:40:25;;;;;;;;;;;;;;;;;;4237935;27;1288;-64
2022/01/25 06:42:45;;;;;;;;;;;;;;;;;;4238029;28;1988;-64
2022/01/25 06:45:11;;;;;;;;;;;;;;;;;;4237643;28;1146;-65
2022/01/25 06:47:31;;;;;;;;;;;;;;;;;;4238123;28;828;-64
2022/01/25 06:49:51;;;;;;;;;;;;;;;;;;4238256;28;854;-64
2022/01/25 06:52:12;;;;;;;;;;;;;;;;;;4237631;27;1405;-64
2022/01/25 06:54:32;;;;;;;;;;;;;;;;;;4237823;27;1182;-65
2022/01/25 06:56:52;;;;;;;;;;;;;;;;;;4237995;28;937;-64
2022/01/25 06:59:12;;;;;;;;;;;;;;;;;;4237417;27;1291;-64
2022/01/25 07:01:33;;;;;;;;;;;;;;;;;;4237938;28;937;-64
2022/01/25 07:03:53;;;;;;;;;;;;;;;;;;4237940;27;1209;-64
2022/01/25 07:06:13;;;;;;;;;;;;;;;;;;4238806;28;1029;-64
2022/01/25 07:08:34;;;;;;;;;;;;;;;;;;4240814;28;1215;-64
2022/01/25 07:10:54;;;;;;;;;;;;;;;;;;4240811;28;949;-64
2022/01/25 07:13:15;;;;;;;;;;;;;;;;;;4240438;27;1095;-64
2022/01/25 07:15:35;;;;;;;;;;;;;;;;;;4240642;28;1161;-64
2022/01/25 07:17:55;;;;;;;;;;;;;;;;;;4240583;27;941;-64
2022/01/25 07:20:16;;;;;;;;;;;;;;;;;;4240480;27;984;-64
2022/01/25 07:22:36;;;;;;;;;;;;;;;;;;4241313;28;1906;-64
2022/01/25 07:24:56;;;;;;;;;;;;;;;;;;4240100;28;1070;-64
2022/01/25 07:27:17;;;;;;;;;;;;;;;;;;4239557;28;957;-64
2022/01/25 07:29:37;;;;;;;;;;;;;;;;;;4240540;28;1494;-63
2022/01/25 07:31:59;;;;;;;;;;;;;;;;;;4240507;28;892;-65
2022/01/25 07:34:20;;;;;;;;;;;;;;;;;;4240176;27;1036;-64
2022/01/25 07:36:42;;;;;;;;;;;;;;;;;;4240289;27;1046;-64
2022/01/25 07:39:02;;;;;;;;;;;;;;;;;;4240427;28;1016;-64
2022/01/25 07:41:23;;;;;;;;;;;;;;;;;;4239987;27;953;-64
2022/01/25 07:43:43;;;;;;;;;;;;;;;;;;4240422;28;1984;-64
2022/01/25 07:46:05;;;;;;;;;;;;;;;;;;4239987;28;1069;-63
2022/01/25 07:48:25;;;;;;;;;;;;;;;;;;4240469;28;865;-63
2022/01/25 07:50:46;;;;;;;;;;;;;;;;;;4240364;28;905;-64
2022/01/25 07:53:07;;;;;;;;;;;;;;;;;;4240409;28;921;-64
2022/01/25 07:55:27;;;;;;;;;;;;;;;;;;4240030;27;1009;-64
2022/01/25 07:57:47;;;;;;;;;;;;;;;;;;4239753;27;1304;-64
2022/01/25 08:00:08;;;;;;;;;;;;;;;;;;4240232;28;934;-65
2022/01/25 08:02:33;;;;;;;;;;;;;;;;;;4239844;27;1905;-64
2022/01/25 08:04:54;;;;;;;;;;;;;;;;;;4237400;28;1058;-64
2022/01/25 08:07:14;;;;;;;;;;;;;;;;;;4223148;28;1261;-64
2022/01/25 08:09:35;;;;;;;;;;;;;;;;;;4222955;28;1288;-65
2022/01/25 08:11:55;;;;;;;;;;;;;;;;;;4222772;28;1005;-64
2022/01/25 08:14:17;;;;;;;;;;;;;;;;;;4223063;28;940;-64
2022/01/25 08:16:37;;;;;;;;;;;;;;;;;;4222797;28;973;-64
2022/01/25 08:18:57;;;;;;;;;;;;;;;;;;4222711;28;1160;-65
2022/01/25 08:21:18;;;;;;;;;;;;;;;;;;4223043;28;834;-64
2022/01/25 08:23:38;;;;;;;;;;;;;;;;;;4222692;28;1977;-64
2022/01/25 08:25:58;;;;;;;;;;;;;;;;;;4234666;28;1175;-64
2022/01/25 08:28:20;;;;;;;;;;;;;;;;;;4240297;28;947;-64
2022/01/25 08:30:41;;;;;;;;;;;;;;;;;;4239763;28;931;-64
2022/01/25 08:33:01;;;;;;;;;;;;;;;;;;4239716;28;1044;-64
2022/01/25 08:35:21;;;;;;;;;;;;;;;;;;4219733;28;2158;-64
2022/01/25 08:37:42;;;;;;;;;;;;;;;;;;4205964;28;1186;-65
2022/01/25 08:40:03;;;;;;;;;;;;;;;;;;4217151;28;1197;-64
2022/01/25 08:42:23;;;;;;;;;;;;;;;;;;4212371;28;1005;-64
2022/01/25 08:44:43;;;;;;;;;;;;;;;;;;4211120;28;1873;-62
2022/01/25 08:47:03;;;;;;;;;;;;;;;;;;4215952;28;1512;-64
2022/01/25 08:49:24;;;;;;;;;;;;;;;;;;4208412;28;2031;-65
2022/01/25 08:51:46;;;;;;;;;;;;;;;;;;4205506;28;1164;-64
2022/01/25 08:54:06;;;;;;;;;;;;;;;;;;4213569;28;1105;-63
2022/01/25 08:56:27;;;;;;;;;;;;;;;;;;4222478;28;949;-64
2022/01/25 08:58:47;;;;;;;;;;;;;;;;;;4222249;28;1282;-64
2022/01/25 09:01:08;;;;;;;;;;;;;;;;;;4222547;28;1162;-65
2022/01/25 09:03:28;;;;;;;;;;;;;;;;;;4223187;28;1910;-65
2022/01/25 09:05:49;;;;;;;;;;;;;;;;;;4215299;28;2231;-64
2022/01/25 09:08:09;;;;;;;;;;;;;;;;;;4221258;28;1828;-64
2022/01/25 09:10:30;;;;;;;;;;;;;;;;;;4224079;28;1444;-64
2022/01/25 09:12:50;;;;;;;;;;;;;;;;;;4219429;28;1787;-64
2022/01/25 09:15:11;;;;;;;;;;;;;;;;;;4217057;28;2062;-65
2022/01/25 09:17:31;;;;;;;;;;;;;;;;;;4218535;28;1551;-64
2022/01/25 09:19:51;;;;;;;;;;;;;;;;;;4218773;28;1758;-64
2022/01/25 09:22:11;;;;;;;;;;;;;;;;;;4218530;28;1502;-65
2022/01/25 09:24:32;;;;;;;;;;;;;;;;;;4218540;28;1910;-64
2022/01/25 09:26:52;;;;;;;;;;;;;;;;;;4222113;28;1225;-64
2022/01/25 09:29:13;;;;;;;;;;;;;;;;;;4218177;28;2807;-65
2022/01/25 09:31:33;;;;;;;;;;;;;;;;;;4219870;28;2472;-70
2022/01/25 09:33:54;;;;;;;;;;;;;;;;;;4219033;28;1956;-64
2022/01/25 09:36:14;;;;;;;;;;;;;;;;;;4218546;28;1886;-63
2022/01/25 09:38:59;;;;;;;;;;;;;;;;;;4232937;27;1650;-67
2022/01/25 09:41:20;;;;;;;;;;;;;;;;;;4219332;28;1382;-65
2022/01/25 09:43:40;;;;;;;;;;;;;;;;;;4216116;28;1810;-64
2022/01/25 09:46:00;;;;;;;;;;;;;;;;;;4218932;28;1686;-65
2022/01/25 09:48:21;;;;;;;;;;;;;;;;;;4217528;28;1494;-71
2022/01/25 09:50:41;;;;;;;;;;;;;;;;;;4218655;28;1041;-67
2022/01/25 09:53:02;;;;;;;;;;;;;;;;;;4218197;28;925;-69
2022/01/25 09:55:23;;;;;;;;;;;;;;;;;;4218625;28;986;-63
2022/01/25 09:57:43;;;;;;;;;;;;;;;;;;4218368;28;1961;-69
2022/01/25 10:00:03;;;;;;;;;;;;;;;;;;4221382;28;1303;-66
2022/01/25 10:02:26;;;;;;;;;;;;;;;;;;4221104;27;2578;-63
2022/01/25 10:04:49;;;;;;;;;;;;;;;;;;4211393;28;1181;-65
2022/01/25 10:07:10;;;;;;;;;;;;;;;;;;4213130;28;2057;-67
2022/01/25 10:09:30;;;;;;;;;;;;;;;;;;4201557;28;1221;-65
2022/01/25 10:11:50;;;;;;;;;;;;;;;;;;4201754;28;954;-65
2022/01/25 10:14:11;;;;;;;;;;;;;;;;;;4206870;28;1060;-63
2022/01/25 10:16:32;;;;;;;;;;;;;;;;;;4218205;28;3786;-70
2022/01/25 10:18:53;;;;;;;;;;;;;;;;;;4215636;28;1906;-65
2022/01/25 10:21:13;;;;;;;;;;;;;;;;;;4217317;28;1097;-72
2022/01/25 10:23:35;;;;;;;;;;;;;;;;;;4216576;28;1047;-71
2022/01/25 10:25:55;;;;;;;;;;;;;;;;;;4218052;28;998;-68
2022/01/25 10:28:16;;;;;;;;;;;;;;;;;;4217251;28;1128;-69
2022/01/25 10:30:36;;;;;;;;;;;;;;;;;;4217337;28;969;-69
2022/01/25 10:32:57;;;;;;;;;;;;;;;;;;4205647;28;1076;-66
2022/01/25 10:35:17;;;;;;;;;;;;;;;;;;4201247;28;969;-67
2022/01/25 10:37:37;;;;;;;;;;;;;;;;;;4200426;28;1976;-68
2022/01/25 10:39:58;;;;;;;;;;;;;;;;;;4202601;28;2461;-68
2022/01/25 10:42:18;;;;;;;;;;;;;;;;;;4202102;28;1157;-66
2022/01/25 10:44:39;;;;;;;;;;;;;;;;;;4217381;28;844;-68
2022/01/25 10:46:59;;;;;;;;;;;;;;;;;;4217508;28;907;-64
2022/01/25 10:49:20;;;;;;;;;;;;;;;;;;4212423;28;981;-68
2022/01/25 10:51:41;;;;;;;;;;;;;;;;;;4195809;28;2590;-69
2022/01/25 10:54:01;;;;;;;;;;;;;;;;;;4189473;28;1189;-70
2022/01/25 10:56:22;;;;;;;;;;;;;;;;;;4189889;28;960;-67
2022/01/25 10:58:42;;;;;;;;;;;;;;;;;;4189437;28;1909;-64
2022/01/25 11:01:02;;;;;;;;;;;;;;;;;;4203592;28;1787;-64
2022/01/25 11:06:15;;;;;;;;;;;;;;;;;;4189755;28;870;-61
2022/01/25 11:08:35;;;;;;;;;;;;;;;;;;4189826;28;1083;-64
2022/01/25 11:11:09;;;;;;;;;;;;;;;;;;4205747;28;991;-69
2022/01/25 11:13:37;;;;;;;;;;;;;;;;;;4203814;28;1402;-64
2022/01/25 11:16:23;;;;;;;;;;;;;;;;;;4205310;28;1523;-63
2022/01/25 11:18:52;;;;;;;;;;;;;;;;;;4202373;28;1976;-62
2022/01/25 11:21:15;;;;;;;;;;;;;;;;;;4205039;28;966;-63
2022/01/25 11:24:02;;;;;;;;;;;;;;;;;;4203744;28;1395;-64
2022/01/25 11:26:48;;;;;;;;;;;;;;;;;;4205842;28;1036;-64
2022/01/25 11:29:17;;;;;;;;;;;;;;;;;;4205044;28;2270;-64
2022/01/25 11:31:40;;;;;;;;;;;;;;;;;;4206073;28;812;-60
2022/01/25 11:34:02;;;;;;;;;;;;;;;;;;4206885;28;957;-60
2022/01/25 11:36:49;;;;;;;;;;;;;;;;;;4206455;28;952;-59
2022/01/25 11:39:10;;;;;;;;;;;;;;;;;;4203474;28;1909;-61
2022/01/25 11:41:30;;;;;;;;;;;;;;;;;;4205871;28;1025;-60
2022/01/25 11:46:43;;;;;;;;;;;;;;;;;;4200287;28;1277;-59
2022/01/25 11:49:04;;;;;;;;;;;;;;;;;;4205043;28;1358;-59
2022/01/25 11:51:51;;;;;;;;;;;;;;;;;;4205225;28;1704;-60
2022/01/25 12:05:45;;;;;;;;;;;;;;;;;;4208490;28;1000;-60
2022/01/25 12:08:15;;;;;;;;;;;;;;;;;;4221972;28;1078;-59
2022/01/25 12:10:37;;;;;;;;;;;;;;;;;;4188437;28;1263;-59
2022/01/25 12:12:58;;;;;;;;;;;;;;;;;;4188807;28;1239;-59
2022/01/25 12:15:22;;;;;;;;;;;;;;;;;;4188778;28;1165;-60
2022/01/25 12:17:42;;;;;;;;;;;;;;;;;;4184886;28;1137;-60
2022/01/25 12:20:03;;;;;;;;;;;;;;;;;;4201426;28;1070;-61
2022/01/25 12:22:24;;;;;;;;;;;;;;;;;;4204749;28;952;-60
2022/01/25 12:24:50;;;;;;;;;;;;;;;;;;4203423;28;1099;-59
2022/01/25 12:27:18;;;;;;;;;;;;;;;;;;4204603;28;1060;-62
2022/01/25 12:29:39;;;;;;;;;;;;;;;;;;4205186;28;1377;-60
2022/01/25 12:31:59;;;;;;;;;;;;;;;;;;4205421;28;1154;-62
2022/01/25 12:34:19;;;;;;;;;;;;;;;;;;4203830;28;1087;-62
2022/01/25 12:36:43;;;;;;;;;;;;;;;;;;4205211;28;1008;-62
2022/01/25 12:39:04;;;;;;;;;;;;;;;;;;4204418;28;1901;-64
2022/01/25 12:41:24;;;;;;;;;;;;;;;;;;4205213;28;1058;-62
2022/01/25 12:43:45;;;;;;;;;;;;;;;;;;4205189;28;1123;-62
2022/01/25 12:46:06;;;;;;;;;;;;;;;;;;4205456;28;942;-66
2022/01/25 12:48:27;;;;;;;;;;;;;;;;;;4205924;28;931;-66
2022/01/25 12:50:48;;;;;;;;;;;;;;;;;;4206036;28;1037;-66
2022/01/25 12:53:08;;;;;;;;;;;;;;;;;;4205726;28;1017;-66
2022/01/25 12:55:29;;;;;;;;;;;;;;;;;;4205914;28;1113;-66
2022/01/25 12:57:50;;;;;;;;;;;;;;;;;;4205843;28;1123;-68
2022/01/25 13:00:10;;;;;;;;;;;;;;;;;;4205564;28;950;-66
2022/01/25 13:02:30;;;;;;;;;;;;;;;;;;4205482;28;1131;-66
2022/01/25 13:04:51;;;;;;;;;;;;;;;;;;4205842;28;1186;-65
2022/01/25 14:59:35;;;;;;;;;;;;;;;;;;4236112;27;1341;-59
2022/01/25 15:01:56;;;;;;;;;;;;;;;;;;4263637;27;1129;-59
2022/01/25 15:04:18;;;;;;;;;;;;;;;;;;4235719;27;1012;-59
2022/01/25 15:07:06;;;;;;;;;;;;;;;;;;4235908;28;936;-60
2022/01/25 15:09:29;;;;;;;;;;;;;;;;;;4235766;27;1248;-60
2022/01/25 15:11:52;;;;;;;;;;;;;;;;;;4228713;27;1598;-60
2022/01/25 15:14:19;;;;;;;;;;;;;;;;;;4218108;28;916;-60
2022/01/25 15:16:39;;;;;;;;;;;;;;;;;;4222034;28;1092;-59
2022/01/25 15:18:59;;;;;;;;;;;;;;;;;;4235331;28;1906;-60
2022/01/25 15:21:20;;;;;;;;;;;;;;;;;;4235055;27;984;-60
2022/01/25 15:23:45;;;;;;;;;;;;;;;;;;4235071;27;1006;-59
2022/01/25 15:26:06;;;;;;;;;;;;;;;;;;4234645;27;1117;-59
2022/01/25 15:28:35;;;;;;;;;;;;;;;;;;4235276;28;1115;-59
2022/01/25 15:30:56;;;;;;;;;;;;;;;;;;4235034;28;1743;-59
2022/01/25 15:33:16;;;;;;;;;;;;;;;;;;4234920;28;1325;-59
2022/01/25 15:35:37;;;;;;;;;;;;;;;;;;4234744;27;948;-60
2022/01/25 15:38:00;;;;;;;;;;;;;;;;;;4235028;27;1988;-59
2022/01/25 15:40:20;;;;;;;;;;;;;;;;;;4233894;28;1174;-59
2022/01/25 15:42:40;;;;;;;;;;;;;;;;;;4234314;27;1097;-60
2022/01/25 15:45:10;;;;;;;;;;;;;;;;;;4234663;27;1206;-60
2022/01/25 15:47:31;;;;;;;;;;;;;;;;;;4234822;28;997;-59
2022/01/25 15:49:51;;;;;;;;;;;;;;;;;;4235033;27;1001;-60
2022/01/25 15:52:11;;;;;;;;;;;;;;;;;;4235227;28;978;-59
2022/01/25 15:54:32;;;;;;;;;;;;;;;;;;4234001;28;1729;-59
2022/01/25 15:56:52;;;;;;;;;;;;;;;;;;4234584;28;1064;-60
2022/01/25 15:59:13;;;;;;;;;;;;;;;;;;4234339;28;1949;-59
2022/01/25 16:01:33;;;;;;;;;;;;;;;;;;4234632;28;868;-59
2022/01/25 16:03:53;;;;;;;;;;;;;;;;;;4234196;28;1101;-59
2022/01/25 16:06:14;;;;;;;;;;;;;;;;;;4234322;28;1440;-60
2022/01/25 16:08:35;;;;;;;;;;;;;;;;;;4234525;28;1466;-59
2022/01/25 16:10:58;;;;;;;;;;;;;;;;;;4223225;28;1092;-60
2022/01/25 16:13:19;;;;;;;;;;;;;;;;;;4223286;28;1044;-59
2022/01/25 16:15:40;;;;;;;;;;;;;;;;;;4222588;28;1106;-59
2022/01/25 16:18:00;;;;;;;;;;;;;;;;;;4222901;28;963;-59
2022/01/25 16:20:21;;;;;;;;;;;;;;;;;;4222666;28;1000;-59
2022/01/25 16:22:47;;;;;;;;;;;;;;;;;;4223062;28;1310;-60
2022/01/25 16:25:11;;;;;;;;;;;;;;;;;;4222225;28;1064;-59
2022/01/25 16:41:44;;;;;;;;;;;;;;;;;;4208676;28;1917;-59
2022/01/25 16:44:10;;;;;;;;;;;;;;;;;;4214909;28;1623;-60
2022/01/25 16:49:16;;;;;;;;;;;;;;;;;;4222280;28;1341;-60
2022/01/25 16:51:38;;;;;;;;;;;;;;;;;;4222515;28;1273;-60
2022/01/25 16:53:59;;;;;;;;;;;;;;;;;;4222708;28;1086;-60
2022/01/25 16:56:20;;;;;;;;;;;;;;;;;;4222218;28;1254;-60
2022/01/25 16:58:40;;;;;;;;;;;;;;;;;;4222454;28;1910;-59
2022/01/25 17:01:01;;;;;;;;;;;;;;;;;;4222439;28;1194;-59
2022/01/25 17:03:21;;;;;;;;;;;;;;;;;;4222407;28;986;-59
2022/01/25 17:05:41;;;;;;;;;;;;;;;;;;4222303;28;964;-59
2022/01/25 17:08:02;;;;;;;;;;;;;;;;;;4222377;28;1062;-60
2022/01/25 17:10:23;;;;;;;;;;;;;;;;;;4222193;28;1178;-60
2022/01/25 17:12:43;;;;;;;;;;;;;;;;;;4218743;28;1547;-61
2022/01/25 17:15:04;;;;;;;;;;;;;;;;;;4221756;28;1205;-60
2022/01/25 17:17:25;;;;;;;;;;;;;;;;;;4221974;28;971;-60
2022/01/25 17:19:45;;;;;;;;;;;;;;;;;;4221712;28;1984;-61
2022/01/25 17:22:05;;;;;;;;;;;;;;;;;;4221153;28;985;-62
2022/01/25 17:24:26;;;;;;;;;;;;;;;;;;4221999;28;1029;-63
2022/01/25 17:26:46;;;;;;;;;;;;;;;;;;4221794;28;1334;-62
2022/01/25 17:29:08;;;;;;;;;;;;;;;;;;4222163;28;1005;-62
2022/01/25 17:31:28;;;;;;;;;;;;;;;;;;4217948;28;2250;-62
2022/01/25 17:33:49;;;;;;;;;;;;;;;;;;4220166;28;1419;-61
2022/01/25 17:36:09;;;;;;;;;;;;;;;;;;4220723;28;1039;-62
2022/01/25 17:38:30;;;;;;;;;;;;;;;;;;4215976;28;2323;-64
2022/01/25 17:40:50;;;;;;;;;;;;;;;;;;4210132;28;1114;-64
2022/01/25 17:43:10;;;;;;;;;;;;;;;;;;4220398;28;1297;-64
2022/01/25 17:45:31;;;;;;;;;;;;;;;;;;4219961;28;1323;-68
2022/01/25 17:47:52;;;;;;;;;;;;;;;;;;4227484;28;1311;-68
2022/01/25 17:50:12;;;;;;;;;;;;;;;;;;4235327;28;1403;-68
2022/01/25 17:52:33;;;;;;;;;;;;;;;;;;4220307;28;894;-66
2022/01/25 17:54:53;;;;;;;;;;;;;;;;;;4220826;28;855;-66
2022/01/25 17:57:14;;;;;;;;;;;;;;;;;;4220614;28;1214;-67
2022/01/25 17:59:35;;;;;;;;;;;;;;;;;;4220214;28;1905;-66
2022/01/25 18:01:58;;;;;;;;;;;;;;;;;;4220743;28;1295;-66
2022/01/25 18:04:20;;;;;;;;;;;;;;;;;;4220889;28;1112;-66
2022/01/25 18:06:40;;;;;;;;;;;;;;;;;;4219092;28;1652;-66
2022/01/25 18:09:00;;;;;;;;;;;;;;;;;;4220281;28;919;-65
2022/01/25 18:11:21;;;;;;;;;;;;;;;;;;4219945;28;1332;-64
2022/01/25 18:13:41;;;;;;;;;;;;;;;;;;4219795;28;1092;-67
2022/01/25 18:16:02;;;;;;;;;;;;;;;;;;4220478;28;829;-66
2022/01/25 18:18:22;;;;;;;;;;;;;;;;;;4220379;28;841;-66
2022/01/25 18:20:43;;;;;;;;;;;;;;;;;;4220219;28;1969;-66
2022/01/25 18:23:09;;;;;;;;;;;;;;;;;;4220446;28;764;-66
2022/01/25 18:28:24;;;;;;;;;;;;;;;;;;4220476;28;1026;-65
2022/01/25 18:30:46;;;;;;;;;;;;;;;;;;4219931;28;1064;-66
2022/01/25 18:33:08;;;;;;;;;;;;;;;;;;4219824;28;1100;-66
2022/01/25 18:35:31;;;;;;;;;;;;;;;;;;4220144;28;1232;-65
2022/01/25 18:37:56;;;;;;;;;;;;;;;;;;4218850;28;1303;-64
2022/01/25 18:40:42;;;;;;;;;;;;;;;;;;4210322;28;2437;-65
2022/01/25 18:43:05;;;;;;;;;;;;;;;;;;4218738;28;1385;-66
2022/01/25 18:45:27;;;;;;;;;;;;;;;;;;4219199;28;1186;-66
2022/01/25 18:47:59;;;;;;;;;;;;;;;;;;4214905;28;1476;-66
2022/01/25 18:50:24;;;;;;;;;;;;;;;;;;4200843;28;1180;-66
2022/01/25 18:52:50;;;;;;;;;;;;;;;;;;4202035;28;933;-66
2022/01/25 18:57:59;;;;;;;;;;;;;;;;;;4218957;28;1323;-67
2022/01/25 19:00:21;;;;;;;;;;;;;;;;;;4219841;28;1980;-65
2022/01/25 19:11:11;;;;;;;;;;;;;;;;;;4219291;28;1270;-65
2022/01/25 19:13:32;;;;;;;;;;;;;;;;;;4220225;28;882;-65
2022/01/25 19:16:19;;;;;;;;;;;;;;;;;;4220183;28;1043;-65
2022/01/25 19:18:39;;;;;;;;;;;;;;;;;;4219995;28;870;-65
2022/01/25 19:21:00;;;;;;;;;;;;;;;;;;4219957;28;1964;-66
2022/01/25 19:23:20;;;;;;;;;;;;;;;;;;4219922;28;1128;-65
2022/01/25 19:25:41;;;;;;;;;;;;;;;;;;4219594;28;825;-64
2022/01/25 19:28:01;;;;;;;;;;;;;;;;;;4219880;28;1125;-65
2022/01/25 19:30:24;;;;;;;;;;;;;;;;;;4218418;28;1311;-67
2022/01/25 19:32:44;;;;;;;;;;;;;;;;;;4219007;28;1416;-65
2022/01/25 19:35:05;;;;;;;;;;;;;;;;;;4219680;28;858;-65
2022/01/25 19:37:26;;;;;;;;;;;;;;;;;;4219808;28;820;-71
2022/01/25 19:39:49;;;;;;;;;;;;;;;;;;4219687;28;1999;-60
2022/01/25 19:42:11;;;;;;;;;;;;;;;;;;4202770;28;939;-60
2022/01/25 19:44:34;;;;;;;;;;;;;;;;;;4202876;28;1038;-61
2022/01/25 19:46:54;;;;;;;;;;;;;;;;;;4204796;28;1248;-60
2022/01/25 19:49:16;;;;;;;;;;;;;;;;;;4204637;28;949;-60
2022/01/25 19:51:38;;;;;;;;;;;;;;;;;;4205772;28;958;-60
2022/01/25 19:53:58;;;;;;;;;;;;;;;;;;4205797;28;1008;-60
2022/01/25 19:56:19;;;;;;;;;;;;;;;;;;4216576;28;1160;-61
2022/01/25 19:58:40;;;;;;;;;;;;;;;;;;4221695;28;1083;-60
2022/01/25 20:01:01;;;;;;;;;;;;;;;;;;4221469;28;1913;-61
2022/01/25 20:03:21;;;;;;;;;;;;;;;;;;4222378;28;907;-61
2022/01/25 20:05:42;;;;;;;;;;;;;;;;;;4221924;28;1029;-60
2022/01/25 20:08:02;;;;;;;;;;;;;;;;;;4222518;28;1024;-61
2022/01/25 20:10:26;;;;;;;;;;;;;;;;;;4221733;28;1153;-61
2022/01/25 20:12:46;;;;;;;;;;;;;;;;;;4221932;28;1188;-61
2022/01/25 20:15:07;;;;;;;;;;;;;;;;;;4222317;28;852;-61
2022/01/25 20:17:29;;;;;;;;;;;;;;;;;;4222148;28;951;-61
2022/01/25 20:19:53;;;;;;;;;;;;;;;;;;4221922;28;1906;-61
2022/01/25 20:22:16;;;;;;;;;;;;;;;;;;4221447;28;802;-61
2022/01/25 20:24:43;;;;;;;;;;;;;;;;;;4220682;28;1231;-61
2022/01/25 20:27:10;;;;;;;;;;;;;;;;;;4221561;28;1003;-61